Time;durP1;ratioP1;P1;durP2;ratioP2;P2;SDS_P1;SDS_P2;PMS_P1;PMS_P2;Temp;Humidity;BMP_temperature;BMP_pressure;BME280_temperature;BME280_humidity;BME280_pressure;Samples;Min_cycle;Max_cycle;Signal;HPM_P1;HPM_P2
2023/10/27 00:00:07;;;;;;;59.92;33.03;;;;;;;-148.88;100.00;-17125.47;5035905;28;20120;-84
2023/10/27 00:02:38;;;;;;;35.03;14.00;;;;;;;-148.88;100.00;-17125.47;5035343;28;20064;-85
2023/10/27 00:05:04;;;;;;;56.85;30.90;;;;;;;-148.88;100.00;-17125.47;5034975;28;20025;-83
2023/10/27 00:07:29;;;;;;;62.38;33.25;;;;;;;-148.88;100.00;-17125.47;5034151;28;20120;-85
2023/10/27 00:09:55;;;;;;;58.03;31.48;;;;;;;-148.88;100.00;-17125.47;5034197;28;20511;-85
2023/10/27 00:12:20;;;;;;;62.50;31.75;;;;;;;-148.88;100.00;-17125.47;5032504;28;20045;-83
2023/10/27 00:14:46;;;;;;;59.25;30.85;;;;;;;-148.88;100.00;-17125.47;5032472;28;20029;-84
2023/10/27 00:17:11;;;;;;;63.15;32.65;;;;;;;-148.88;100.00;-17125.47;5034298;28;20079;-85
2023/10/27 00:19:36;;;;;;;61.90;33.30;;;;;;;-148.88;100.00;-17125.47;5032570;28;20101;-85
2023/10/27 00:22:02;;;;;;;64.13;31.42;;;;;;;-148.88;100.00;-17125.47;5033105;28;20048;-85
2023/10/27 00:24:27;;;;;;;62.78;32.67;;;;;;;-148.88;100.00;-17125.47;5033885;28;20037;-82
2023/10/27 00:26:52;;;;;;;61.05;31.30;;;;;;;-148.88;100.00;-17125.47;5033129;28;20506;-85
2023/10/27 00:29:18;;;;;;;71.80;33.20;;;;;;;-148.88;100.00;-17125.47;5035826;28;20029;-86
2023/10/27 00:31:43;;;;;;;60.42;31.95;;;;;;;-148.88;100.00;-17125.47;5033922;28;20033;-84
2023/10/27 00:34:09;;;;;;;57.67;31.02;;;;;;;-148.88;100.00;-17125.47;5032696;28;20052;-84
2023/10/27 00:36:34;;;;;;;64.45;32.92;;;;;;;-148.88;100.00;-17125.47;5033530;28;20028;-85
2023/10/27 00:38:59;;;;;;;63.00;32.63;;;;;;;-148.88;100.00;-17125.47;5032427;28;20025;-85
2023/10/27 00:41:25;;;;;;;62.88;32.00;;;;;;;-148.88;100.00;-17125.47;5033560;28;20108;-83
2023/10/27 00:43:50;;;;;;;62.17;33.05;;;;;;;-148.88;100.00;-17125.47;5033798;28;20025;-85
2023/10/27 00:46:16;;;;;;;63.92;32.80;;;;;;;-148.88;100.00;-17125.47;5033506;28;20147;-84
2023/10/27 00:48:41;;;;;;;66.18;33.85;;;;;;;-148.88;100.00;-17125.47;5033468;28;20025;-85
2023/10/27 00:51:09;;;;;;;61.70;30.23;;;;;;;-148.88;100.00;-17125.47;5033858;28;20082;-85
2023/10/27 00:53:35;;;;;;;59.88;31.30;;;;;;;-148.88;100.00;-17125.47;5038340;28;20476;-84
2023/10/27 00:56:02;;;;;;;61.25;30.48;;;;;;;-148.88;100.00;-17125.47;5036576;28;20068;-84
2023/10/27 00:58:28;;;;;;;59.65;29.33;;;;;;;-148.88;100.00;-17125.47;5036211;28;20036;-85
2023/10/27 01:00:56;;;;;;;58.08;29.70;;;;;;;-148.88;100.00;-17125.47;5037746;28;20033;-85
2023/10/27 01:03:22;;;;;;;66.05;30.55;;;;;;;-148.88;100.00;-17125.47;5036107;28;20505;-85
2023/10/27 01:05:47;;;;;;;35.28;12.15;;;;;;;-148.88;100.00;-17125.47;5036087;28;20116;-85
2023/10/27 01:08:13;;;;;;;34.72;13.25;;;;;;;-148.88;100.00;-17125.47;5036111;28;20028;-85
2023/10/27 01:10:38;;;;;;;58.33;29.42;;;;;;;-148.88;100.00;-17125.47;5036179;28;20032;-85
2023/10/27 01:13:04;;;;;;;56.47;30.23;;;;;;;-148.88;100.00;-17125.47;5035770;28;20099;-84
2023/10/27 01:15:30;;;;;;;54.60;28.52;;;;;;;-148.88;100.00;-17125.47;5035859;28;20033;-85
2023/10/27 01:17:56;;;;;;;50.83;28.75;;;;;;;-148.88;100.00;-17125.47;5036577;28;20041;-83
2023/10/27 01:20:21;;;;;;;53.83;27.00;;;;;;;-148.88;100.00;-17125.47;5035639;28;20029;-85
2023/10/27 01:22:47;;;;;;;55.50;28.35;;;;;;;-148.88;100.00;-17125.47;5036581;28;20022;-85
2023/10/27 01:25:16;;;;;;;34.13;12.70;;;;;;;-148.88;100.00;-17125.47;5035381;28;20044;-85
2023/10/27 01:27:43;;;;;;;54.65;26.90;;;;;;;-148.88;100.00;-17125.47;5035248;28;20030;-84
2023/10/27 01:30:10;;;;;;;58.58;28.75;;;;;;;-148.88;100.00;-17125.47;5035219;28;20028;-82
2023/10/27 01:32:40;;;;;;;58.60;29.08;;;;;;;-148.88;100.00;-17125.47;5035297;28;20013;-85
2023/10/27 01:35:07;;;;;;;33.33;12.65;;;;;;;-148.88;100.00;-17125.47;5035007;28;20029;-85
2023/10/27 01:37:32;;;;;;;56.85;29.52;;;;;;;-148.88;100.00;-17125.47;5035266;28;20112;-86
2023/10/27 01:39:58;;;;;;;35.95;12.82;;;;;;;-148.88;100.00;-17125.47;5035672;28;20148;-84
2023/10/27 01:42:23;;;;;;;56.42;27.33;;;;;;;-148.88;100.00;-17125.47;5035013;28;20024;-84
2023/10/27 01:44:49;;;;;;;61.38;29.13;;;;;;;-148.88;100.00;-17125.47;5036362;28;20092;-85
2023/10/27 01:47:15;;;;;;;56.60;27.80;;;;;;;-148.88;100.00;-17125.47;5035214;28;20083;-86
2023/10/27 01:49:40;;;;;;;54.08;26.30;;;;;;;-148.88;100.00;-17125.47;5036605;28;20021;-85
2023/10/27 01:52:06;;;;;;;53.13;27.52;;;;;;;-148.88;100.00;-17125.47;5036538;28;20097;-84
2023/10/27 01:54:31;;;;;;;56.47;28.23;;;;;;;-148.88;100.00;-17125.47;5036185;28;20044;-83
2023/10/27 01:56:56;;;;;;;58.22;27.92;;;;;;;-148.88;100.00;-17125.47;5034609;28;20029;-86
2023/10/27 01:59:22;;;;;;;58.03;27.85;;;;;;;-148.88;100.00;-17125.47;5034955;28;20147;-86
2023/10/27 02:01:47;;;;;;;58.58;28.83;;;;;;;-148.88;100.00;-17125.47;5034913;28;20116;-85
2023/10/27 02:04:12;;;;;;;59.03;27.80;;;;;;;-148.88;100.00;-17125.47;5036036;28;20030;-87
2023/10/27 02:06:38;;;;;;;56.83;27.40;;;;;;;-148.88;100.00;-17125.47;5034758;28;20071;-86
2023/10/27 02:09:04;;;;;;;61.80;28.27;;;;;;;-148.88;100.00;-17125.47;5034579;28;20029;-85
2023/10/27 02:11:29;;;;;;;58.85;28.88;;;;;;;-148.88;100.00;-17125.47;5034298;28;20025;-86
2023/10/27 02:13:54;;;;;;;55.72;27.73;;;;;;;-148.88;100.00;-17125.47;5036600;28;20026;-87
2023/10/27 02:16:20;;;;;;;58.85;28.20;;;;;;;-148.88;100.00;-17125.47;5036982;28;20091;-86
2023/10/27 02:18:45;;;;;;;55.97;27.85;;;;;;;-148.88;100.00;-17125.47;5036657;28;20085;-86
2023/10/27 02:21:11;;;;;;;57.20;27.00;;;;;;;-148.88;100.00;-17125.47;5034948;28;20025;-87
2023/10/27 02:23:36;;;;;;;53.55;27.13;;;;;;;-148.88;100.00;-17125.47;5035631;28;20112;-87
2023/10/27 02:26:01;;;;;;;57.90;28.77;;;;;;;-148.88;100.00;-17125.47;5034552;28;20492;-86
2023/10/27 02:28:27;;;;;;;58.60;28.98;;;;;;;-148.88;100.00;-17125.47;5035886;28;20523;-84
2023/10/27 02:30:52;;;;;;;57.80;29.15;;;;;;;-148.88;100.00;-17125.47;5035161;28;20028;-85
2023/10/27 02:33:17;;;;;;;38.13;13.00;;;;;;;-148.88;100.00;-17125.47;5034279;28;20018;-86
2023/10/27 02:35:43;;;;;;;59.13;28.70;;;;;;;-148.88;100.00;-17125.47;5033977;28;20055;-86
2023/10/27 02:38:08;;;;;;;56.38;28.33;;;;;;;-148.88;100.00;-17125.47;5033949;28;20097;-85
2023/10/27 02:40:37;;;;;;;35.28;13.15;;;;;;;-148.88;100.00;-17125.47;5036218;28;20021;-87
2023/10/27 02:43:03;;;;;;;57.17;28.27;;;;;;;-148.88;100.00;-17125.47;5035665;28;20029;-87
2023/10/27 02:45:29;;;;;;;62.75;28.27;;;;;;;-148.88;100.00;-17125.47;5033923;28;20075;-85
2023/10/27 02:47:55;;;;;;;56.05;28.17;;;;;;;-148.88;100.00;-17125.47;5033817;28;20067;-87
2023/10/27 02:50:20;;;;;;;60.08;28.60;;;;;;;-148.88;100.00;-17125.47;5033779;28;20029;-85
2023/10/27 02:52:45;;;;;;;56.40;27.73;;;;;;;-148.88;100.00;-17125.47;5035365;28;20029;-86
2023/10/27 02:55:11;;;;;;;38.05;12.60;;;;;;;-148.88;100.00;-17125.47;5034019;28;20116;-85
2023/10/27 02:57:36;;;;;;;61.85;29.30;;;;;;;-148.88;100.00;-17125.47;5033947;28;20078;-86
2023/10/27 03:00:03;;;;;;;38.72;13.20;;;;;;;-148.88;100.00;-17125.47;5033528;28;20029;-86
2023/10/27 03:02:28;;;;;;;62.75;28.45;;;;;;;-148.88;100.00;-17125.47;5033753;28;20112;-85
2023/10/27 03:04:57;;;;;;;70.45;30.40;;;;;;;-148.88;100.00;-17125.47;5033858;28;20112;-85
2023/10/27 03:07:22;;;;;;;68.93;30.65;;;;;;;-148.88;100.00;-17125.47;5034921;28;20026;-86
2023/10/27 03:09:48;;;;;;;70.97;31.20;;;;;;;-148.88;100.00;-17125.47;5035705;28;20036;-86
2023/10/27 03:12:14;;;;;;;70.80;30.88;;;;;;;-148.88;100.00;-17125.47;5034115;28;20102;-85
2023/10/27 03:14:40;;;;;;;70.03;30.85;;;;;;;-148.88;100.00;-17125.47;5032954;28;20018;-86
2023/10/27 03:17:05;;;;;;;74.03;31.85;;;;;;;-148.88;100.00;-17125.47;5035003;28;20248;-87
2023/10/27 03:19:31;;;;;;;76.50;31.98;;;;;;;-148.88;100.00;-17125.47;5034031;28;20021;-86
2023/10/27 03:22:03;;;;;;;73.75;32.75;;;;;;;-148.88;100.00;-17125.47;5033296;28;20033;-87
2023/10/27 03:24:31;;;;;;;73.40;31.73;;;;;;;-148.88;100.00;-17125.47;5033546;28;20024;-87
2023/10/27 03:26:57;;;;;;;67.07;30.85;;;;;;;-148.88;100.00;-17125.47;5033532;28;20043;-86
2023/10/27 03:29:22;;;;;;;35.78;12.70;;;;;;;-148.88;100.00;-17125.47;5034637;28;20428;-84
2023/10/27 03:31:50;;;;;;;61.00;28.95;;;;;;;-148.88;100.00;-17125.47;5034431;28;20026;-86
2023/10/27 03:34:15;;;;;;;68.05;30.02;;;;;;;-148.88;100.00;-17125.47;5033224;28;20029;-86
2023/10/27 03:36:41;;;;;;;65.82;29.25;;;;;;;-148.88;100.00;-17125.47;5035784;28;20022;-87
2023/10/27 03:39:07;;;;;;;63.97;29.13;;;;;;;-148.88;100.00;-17125.47;5033265;28;20064;-86
2023/10/27 03:41:32;;;;;;;41.65;12.23;;;;;;;-148.88;100.00;-17125.47;5033319;28;20021;-87
2023/10/27 03:44:09;;;;;;;60.80;27.75;;;;;;;-148.88;100.00;-17125.47;5034017;28;20079;-85
2023/10/27 03:46:42;;;;;;;56.42;25.95;;;;;;;-148.88;100.00;-17125.47;5032342;28;20032;-86
2023/10/27 03:49:08;;;;;;;54.78;26.83;;;;;;;-148.88;100.00;-17125.47;5034258;28;20128;-87
2023/10/27 03:51:41;;;;;;;60.10;26.30;;;;;;;-148.88;100.00;-17125.47;5033416;28;20197;-87
2023/10/27 03:54:07;;;;;;;;;;;;;;;-148.88;100.00;-17125.47;5033278;28;20491;-86
2023/10/27 03:56:55;;;;;;;53.47;26.70;;;;;;;-148.88;100.00;-17125.47;5032793;28;19935;-86
2023/10/27 03:59:21;;;;;;;57.85;26.05;;;;;;;-148.88;100.00;-17125.47;5032768;28;20033;-86
2023/10/27 04:01:57;;;;;;;52.80;25.52;;;;;;;-148.88;100.00;-17125.47;5033912;28;20025;-87
2023/10/27 04:04:35;;;;;;;53.72;26.25;;;;;;;-148.88;100.00;-17125.47;5033562;28;20032;-86
2023/10/27 04:07:01;;;;;;;26.65;10.80;;;;;;;-148.88;100.00;-17125.47;5033245;28;20025;-86
2023/10/27 04:09:26;;;;;;;54.22;25.88;;;;;;;-148.88;100.00;-17125.47;5032309;28;20384;-85
2023/10/27 04:11:52;;;;;;;32.95;11.00;;;;;;;-148.88;100.00;-17125.47;5033691;28;20100;-87
2023/10/27 04:14:19;;;;;;;48.08;23.60;;;;;;;-148.88;100.00;-17125.47;5033842;28;20021;-87
2023/10/27 04:16:46;;;;;;;47.10;23.15;;;;;;;-148.88;100.00;-17125.47;5032194;28;20025;-87
2023/10/27 04:19:14;;;;;;;45.47;22.60;;;;;;;-148.88;100.00;-17125.47;5032315;28;20033;-87
2023/10/27 04:21:40;;;;;;;27.77;9.13;;;;;;;-148.88;100.00;-17125.47;5034249;28;20063;-85
2023/10/27 04:24:05;;;;;;;46.95;22.70;;;;;;;-148.88;100.00;-17125.47;5032570;28;20049;-87
2023/10/27 04:26:30;;;;;;;48.03;22.83;;;;;;;-148.88;100.00;-17125.47;5033318;28;20534;-87
2023/10/27 04:28:56;;;;;;;48.10;23.38;;;;;;;-148.88;100.00;-17125.47;5034097;28;20033;-87
2023/10/27 04:31:33;;;;;;;32.10;10.10;;;;;;;-148.88;100.00;-17125.47;5032916;28;20380;-86
2023/10/27 04:33:58;;;;;;;49.92;23.23;;;;;;;-148.88;100.00;-17125.47;5033600;28;20021;-87
2023/10/27 04:36:56;;;;;;;58.70;25.02;;;;;;;-148.88;100.00;-17125.47;5033357;28;20029;-87
2023/10/27 04:39:22;;;;;;;52.85;23.42;;;;;;;-148.88;100.00;-17125.47;4975887;28;20030;-87
2023/10/27 04:42:00;;;;;;;56.55;25.60;;;;;;;-148.88;100.00;-17125.47;4980725;28;20084;-84
2023/10/27 04:44:25;;;;;;;33.53;11.40;;;;;;;-148.88;100.00;-17125.47;5033311;28;20109;-85
2023/10/27 04:47:02;;;;;;;63.75;26.23;;;;;;;-148.88;100.00;-17125.47;5032031;28;20021;-85
2023/10/27 04:49:43;;;;;;;60.40;27.15;;;;;;;-148.88;100.00;-17125.47;5033637;28;20455;-87
2023/10/27 04:52:28;;;;;;;56.00;25.65;;;;;;;-148.88;100.00;-17125.47;5032404;28;20108;-87
2023/10/27 04:54:54;;;;;;;57.67;26.92;;;;;;;-148.88;100.00;-17125.47;5032734;28;20543;-86
2023/10/27 04:57:22;;;;;;;63.35;27.40;;;;;;;-148.88;100.00;-17125.47;5035837;28;20061;-87
2023/10/27 04:59:48;;;;;;;58.65;26.90;;;;;;;-148.88;100.00;-17125.47;5032909;28;20034;-89
2023/10/27 05:02:13;;;;;;;59.80;27.33;;;;;;;-148.88;100.00;-17125.47;5032077;28;20086;-87
2023/10/27 05:04:44;;;;;;;58.90;27.50;;;;;;;-148.88;100.00;-17125.47;5031621;28;20040;-85
2023/10/27 05:07:28;;;;;;;54.33;26.48;;;;;;;-148.88;100.00;-17125.47;5032140;28;20033;-86
2023/10/27 05:09:55;;;;;;;38.95;10.63;;;;;;;-148.88;100.00;-17125.47;5032406;28;20053;-86
2023/10/27 05:12:26;;;;;;;55.47;25.83;;;;;;;-148.88;100.00;-17125.47;5033779;28;20038;-89
2023/10/27 05:14:55;;;;;;;56.72;27.15;;;;;;;-148.88;100.00;-17125.47;5031741;28;20029;-87
2023/10/27 05:17:21;;;;;;;58.78;25.88;;;;;;;-148.88;100.00;-17125.47;5031766;28;20083;-88
2023/10/27 05:19:48;;;;;;;58.95;25.63;;;;;;;-148.88;100.00;-17125.47;5031916;28;20431;-86
2023/10/27 05:22:14;;;;;;;52.63;24.80;;;;;;;-148.88;100.00;-17125.47;5032740;28;20025;-86
2023/10/27 05:24:48;;;;;;;35.78;11.38;;;;;;;-148.88;100.00;-17125.47;5031710;28;20343;-87
2023/10/27 05:27:14;;;;;;;55.42;25.75;;;;;;;-148.88;100.00;-17125.47;5033581;28;20040;-86
2023/10/27 05:29:53;;;;;;;55.90;26.63;;;;;;;-148.88;100.00;-17125.47;5033349;28;20025;-85
2023/10/27 05:32:25;;;;;;;33.83;10.65;;;;;;;-148.88;100.00;-17125.47;5031440;28;20112;-87
2023/10/27 05:35:01;;;;;;;57.97;25.65;;;;;;;-148.88;100.00;-17125.47;5032911;28;20051;-85
2023/10/27 05:38:08;;;;;;;48.05;23.60;;;;;;;-148.88;100.00;-17125.47;5033966;28;20017;-86
2023/10/27 05:40:31;;;;;;;;;;;;;;;;;;;;;
2023/10/27 05:43:10;;;;;;;;;;;;;;;;;;;;;
2023/10/27 05:45:36;;;;;;;33.60;10.85;;;;;;;-148.88;100.00;-17125.47;5036385;28;20021;-85
2023/10/27 05:48:07;;;;;;;53.75;25.17;;;;;;;-148.88;100.00;-17125.47;5035320;28;20116;-86
2023/10/27 05:50:32;;;;;;;55.33;24.58;;;;;;;-148.88;100.00;-17125.47;5035134;28;20029;-86
2023/10/27 05:53:16;;;;;;;52.08;23.98;;;;;;;-148.88;100.00;-17125.47;5035386;28;20017;-85
2023/10/27 05:55:48;;;;;;;;;;;;;;;-148.88;100.00;-17125.47;5035099;28;20109;-86
2023/10/27 05:58:13;;;;;;;28.27;10.35;;;;;;;-148.88;100.00;-17125.47;5036477;28;19951;-85
2023/10/27 06:00:39;;;;;;;50.55;22.65;;;;;;;-148.88;100.00;-17125.47;5035289;28;20111;-85
2023/10/27 06:03:18;;;;;;;48.97;24.35;;;;;;;-148.88;100.00;-17125.47;5034581;28;20021;-85
2023/10/27 06:06:02;;;;;;;48.83;21.75;;;;;;;-148.88;100.00;-17125.47;5034653;28;20037;-85
2023/10/27 06:08:35;;;;;;;54.28;23.33;;;;;;;-148.88;100.00;-17125.47;5035274;28;20392;-86
2023/10/27 06:11:08;;;;;;;51.25;23.92;;;;;;;-148.88;100.00;-17125.47;5035424;28;20029;-85
2023/10/27 06:13:42;;;;;;;49.60;22.60;;;;;;;-148.88;100.00;-17125.47;5035979;28;20064;-86
2023/10/27 06:16:17;;;;;;;31.00;11.05;;;;;;;-148.88;100.00;-17125.47;5034799;28;20029;-86
2023/10/27 06:19:24;;;;;;;50.42;23.77;;;;;;;-148.88;100.00;-17125.47;5035757;28;20017;-85
2023/10/27 06:21:53;;;;;;;50.50;22.83;;;;;;;-148.88;100.00;-17125.47;4977905;28;20030;-87
2023/10/27 06:24:19;;;;;;;37.45;11.48;;;;;;;-148.88;100.00;-17125.47;4977727;28;20030;-83
2023/10/27 06:26:44;;;;;;;50.67;23.77;;;;;;;-148.88;100.00;-17125.47;5014435;28;20034;-86
2023/10/27 06:29:10;;;;;;;49.80;21.60;;;;;;;-148.88;100.00;-17125.47;5035434;28;20043;-87
2023/10/27 06:31:49;;;;;;;44.83;21.40;;;;;;;-148.88;100.00;-17125.47;5034535;28;20021;-84
2023/10/27 06:34:22;;;;;;;47.20;22.10;;;;;;;-148.88;100.00;-17125.47;5034769;28;20427;-85
2023/10/27 06:36:47;;;;;;;48.03;23.17;;;;;;;-148.88;100.00;-17125.47;5034426;28;20037;-86
2023/10/27 06:39:22;;;;;;;49.80;23.42;;;;;;;-148.88;100.00;-17125.47;5034170;28;20266;-86
2023/10/27 06:41:51;;;;;;;48.33;22.77;;;;;;;-148.88;100.00;-17125.47;5034599;28;20399;-86
2023/10/27 06:44:19;;;;;;;48.85;23.88;;;;;;;-148.88;100.00;-17125.47;5034305;28;20050;-87
2023/10/27 06:46:49;;;;;;;31.92;10.88;;;;;;;-148.88;100.00;-17125.47;5034237;28;20060;-86
2023/10/27 06:49:17;;;;;;;44.47;21.08;;;;;;;-148.88;100.00;-17125.47;5032804;28;20026;-84
2023/10/27 06:51:58;;;;;;;48.92;22.52;;;;;;;-148.88;100.00;-17125.47;5034597;28;20049;-87
2023/10/27 06:54:32;;;;;;;50.88;22.63;;;;;;;-148.88;100.00;-17125.47;5033551;28;20025;-86
2023/10/27 06:57:04;;;;;;;61.45;30.02;;;;;;;-148.88;100.00;-17125.47;5034381;28;20025;-87
2023/10/27 06:59:32;;;;;;;58.72;29.60;;;;;;;-148.88;100.00;-17125.47;5033852;28;20056;-86
2023/10/27 07:01:58;;;;;;;59.33;28.67;;;;;;;-148.88;100.00;-17125.47;5034132;28;20029;-86
2023/10/27 07:04:23;;;;;;;59.47;27.23;;;;;;;-148.88;100.00;-17125.47;5033294;28;20032;-86
2023/10/27 07:06:49;;;;;;;45.40;15.18;;;;;;;-148.88;100.00;-17125.47;5035214;28;20037;-87
2023/10/27 07:09:14;;;;;;;63.65;31.30;;;;;;;-148.88;100.00;-17125.47;5033965;28;20120;-85
2023/10/27 07:11:43;;;;;;;57.30;29.27;;;;;;;-148.88;100.00;-17125.47;5033852;28;20061;-86
2023/10/27 07:14:24;;;;;;;60.08;30.00;;;;;;;-148.88;100.00;-17125.47;5033307;28;20060;-85
2023/10/27 07:17:14;;;;;;;87.80;41.35;;;;;;;-148.88;100.00;-17125.47;5033179;28;20025;-86
2023/10/27 07:19:39;;;;;;;78.18;39.10;;;;;;;-148.88;100.00;-17125.47;5032729;28;20033;-86
2023/10/27 07:22:14;;;;;;;53.88;28.35;;;;;;;-148.88;100.00;-17125.47;5033751;28;20021;-86
2023/10/27 07:24:52;;;;;;;50.38;25.55;;;;;;;-148.88;100.00;-17125.47;5032957;28;20048;-87
2023/10/27 07:27:29;;;;;;;49.88;23.45;;;;;;;-148.88;100.00;-17125.47;5034436;28;20048;-86
2023/10/27 07:29:57;;;;;;;45.00;23.65;;;;;;;-148.88;100.00;-17125.47;5033044;28;20506;-87
2023/10/27 07:32:56;;;;;;;45.67;23.88;;;;;;;-148.88;100.00;-17125.47;5032956;28;20057;-87
2023/10/27 07:35:35;;;;;;;46.30;23.75;;;;;;;-148.88;100.00;-17125.47;5022390;28;20117;-86
2023/10/27 07:38:20;;;;;;;48.60;24.58;;;;;;;-148.88;100.00;-17125.47;5033307;28;20098;-85
2023/10/27 07:40:49;;;;;;;46.45;24.27;;;;;;;-148.88;100.00;-17125.47;5033829;28;20488;-85
2023/10/27 07:43:15;;;;;;;46.70;23.85;;;;;;;-148.88;100.00;-17125.47;5033003;28;20033;-85
2023/10/27 07:45:46;;;;;;;48.15;23.38;;;;;;;-148.88;100.00;-17125.47;5033961;28;20060;-85
2023/10/27 07:48:11;;;;;;;46.20;23.77;;;;;;;-148.88;100.00;-17125.47;5033179;28;20025;-86
2023/10/27 07:50:39;;;;;;;50.30;24.40;;;;;;;-148.88;100.00;-17125.47;5032691;28;20078;-85
2023/10/27 07:53:16;;;;;;;24.90;10.63;;;;;;;-148.88;100.00;-17125.47;5032363;28;20029;-84
2023/10/27 07:55:41;;;;;;;48.67;27.30;;;;;;;-148.88;100.00;-17125.47;5041252;22;20505;-71
2023/10/27 07:58:07;;;;;;;54.03;27.83;;;;;;;-148.88;100.00;-17125.47;5013085;28;20173;-71
2023/10/27 08:00:32;;;;;;;46.45;25.52;;;;;;;-148.88;100.00;-17125.47;5022678;28;20030;-71
2023/10/27 08:02:58;;;;;;;47.33;25.73;;;;;;;-148.88;100.00;-17125.47;5012993;28;20114;-71
2023/10/27 08:05:28;;;;;;;43.50;23.08;;;;;;;-148.88;100.00;-17125.47;5018055;23;20049;-86
2023/10/27 08:07:54;;;;;;;47.58;22.85;;;;;;;-148.88;100.00;-17125.47;4977957;28;20042;-86
2023/10/27 08:10:20;;;;;;;47.78;23.02;;;;;;;-148.88;100.00;-17125.47;4994833;28;20377;-85
2023/10/27 08:12:46;;;;;;;42.00;23.20;;;;;;;-148.88;100.00;-17125.47;4977277;28;20030;-84
2023/10/27 08:15:14;;;;;;;45.78;24.75;;;;;;;-148.88;100.00;-17125.47;4995373;28;20483;-86
2023/10/27 08:17:43;;;;;;;36.20;12.18;;;;;;;-148.88;100.00;-17125.47;4992977;28;20027;-83
2023/10/27 08:20:21;;;;;;;50.42;24.58;;;;;;;-148.88;100.00;-17125.47;4993043;28;20040;-83
2023/10/27 08:23:07;;;;;;;46.47;23.92;;;;;;;-148.88;100.00;-17125.47;4992886;28;20032;-83
2023/10/27 08:25:36;;;;;;;47.25;24.05;;;;;;;-148.88;100.00;-17125.47;5009718;28;20073;-84
2023/10/27 08:28:05;;;;;;;52.88;25.73;;;;;;;-148.88;100.00;-17125.47;4993169;28;20023;-85
2023/10/27 08:30:40;;;;;;;46.83;23.88;;;;;;;-148.88;100.00;-17125.47;4993436;28;20129;-86
2023/10/27 08:33:14;;;;;;;56.53;26.23;;;;;;;-148.88;100.00;-17125.47;5009817;28;20029;-87
2023/10/27 08:35:45;;;;;;;51.92;27.17;;;;;;;-148.88;100.00;-17125.47;4992968;28;20125;-87
2023/10/27 08:41:55;;;;;;;51.50;26.35;;;;;;;-148.88;100.00;-17125.47;5014873;28;20040;-85
2023/10/27 08:44:21;;;;;;;55.47;26.50;;;;;;;-148.88;100.00;-17125.47;4993837;28;20026;-86
2023/10/27 08:46:47;;;;;;;49.85;24.15;;;;;;;-148.88;100.00;-17125.47;4993392;28;20030;-89
2023/10/27 08:49:19;;;;;;;53.90;25.08;;;;;;;-148.88;100.00;-17125.47;4993228;28;20032;-86
2023/10/27 08:51:46;;;;;;;50.10;23.52;;;;;;;-148.88;100.00;-17125.47;4993310;28;20039;-84
2023/10/27 08:54:20;;;;;;;51.00;25.00;;;;;;;-148.88;100.00;-17125.47;4994412;28;20072;-86
2023/10/27 08:56:45;;;;;;;59.65;25.95;;;;;;;-148.88;100.00;-17125.47;4992826;28;20412;-86
2023/10/27 08:59:21;;;;;;;51.17;24.95;;;;;;;-148.88;100.00;-17125.47;4993120;28;20029;-86
2023/10/27 09:01:59;;;;;;;54.13;25.65;;;;;;;-148.88;100.00;-17125.47;4992865;28;20022;-86
2023/10/27 09:04:44;;;;;;;36.22;11.65;;;;;;;-148.88;100.00;-17125.47;4992568;28;20027;-88
2023/10/27 09:07:15;;;;;;;52.17;25.10;;;;;;;-148.88;100.00;-17125.47;4992757;28;20492;-87
2023/10/27 09:09:44;;;;;;;52.35;25.10;;;;;;;-148.88;100.00;-17125.47;4993145;28;20117;-88
2023/10/27 09:12:11;;;;;;;54.35;25.95;;;;;;;-148.88;100.00;-17125.47;4994583;28;20037;-85
2023/10/27 09:15:01;;;;;;;55.53;25.88;;;;;;;-148.88;100.00;-17125.47;4997370;28;20034;-89
2023/10/27 09:17:51;;;;;;;53.97;26.38;;;;;;;-148.88;100.00;-17125.47;4997314;28;20034;-90
2023/10/27 09:20:18;;;;;;;53.70;23.80;;;;;;;-148.88;100.00;-17125.47;4997396;28;20022;-90
2023/10/27 09:23:04;;;;;;;51.58;25.52;;;;;;;-148.88;100.00;-17125.47;5014177;28;20037;-91
2023/10/27 09:25:57;;;;;;;54.90;24.35;;;;;;;-148.88;100.00;-17125.47;4997710;28;20026;-90
2023/10/27 09:28:55;;;;;;;51.05;23.98;;;;;;;-148.88;100.00;-17125.47;5011288;28;20074;-90
2023/10/27 09:31:36;;;;;;;47.58;24.45;;;;;;;-148.88;100.00;-17125.47;4976463;28;20121;-90
2023/10/27 09:34:43;;;;;;;51.28;25.23;;;;;;;-148.88;100.00;-17125.47;4996449;28;20014;-90
2023/10/27 09:37:11;;;;;;;51.35;24.95;;;;;;;-148.88;100.00;-17125.47;4956891;29;20055;-89
2023/10/27 09:39:38;;;;;;;49.40;23.15;;;;;;;-148.88;100.00;-17125.47;4987816;28;20031;-90
2023/10/27 09:42:16;;;;;;;45.53;23.73;;;;;;;-148.88;100.00;-17125.47;4996536;28;20085;-87
2023/10/27 09:45:20;;;;;;;48.05;24.60;;;;;;;-148.88;100.00;-17125.47;4995814;28;20053;-85
2023/10/27 09:48:02;;;;;;;29.08;10.85;;;;;;;-148.88;100.00;-17125.47;4983942;28;20656;-86
2023/10/27 09:50:31;;;;;;;44.42;23.35;;;;;;;-148.88;100.00;-17125.47;5012407;28;20041;-85
2023/10/27 09:53:01;;;;;;;45.20;23.08;;;;;;;-148.88;100.00;-17125.47;4999176;28;20026;-87
2023/10/27 09:56:07;;;;;;;42.97;22.58;;;;;;;-148.88;100.00;-17125.47;4997273;28;20057;-89
2023/10/27 09:58:34;;;;;;;43.38;22.13;;;;;;;-148.88;100.00;-17125.47;4996957;28;20049;-85
2023/10/27 10:01:10;;;;;;;41.65;20.70;;;;;;;-148.88;100.00;-17125.47;5012473;28;20034;-85
2023/10/27 10:03:56;;;;;;;39.92;20.85;;;;;;;-148.88;100.00;-17125.47;4995721;28;20137;-84
2023/10/27 10:06:23;;;;;;;38.35;20.17;;;;;;;-148.88;100.00;-17125.47;4995774;28;20130;-85
2023/10/27 10:09:22;;;;;;;36.00;20.48;;;;;;;-148.88;100.00;-17125.47;4995681;28;20116;-83
2023/10/27 10:11:48;;;;;;;35.03;19.08;;;;;;;-148.88;100.00;-17125.47;4996797;28;20030;-83
2023/10/27 10:14:45;;;;;;;40.50;20.33;;;;;;;-148.88;100.00;-17125.47;4996435;28;20022;-87
2023/10/27 10:17:30;;;;;;;37.28;20.38;;;;;;;-148.88;100.00;-17125.47;4995725;28;20028;-88
2023/10/27 10:19:59;;;;;;;41.65;19.95;;;;;;;-148.88;100.00;-17125.47;4994743;28;20034;-86
2023/10/27 10:22:48;;;;;;;36.35;20.13;;;;;;;-148.88;100.00;-17125.47;4996677;28;20049;-89
2023/10/27 10:25:32;;;;;;;40.30;21.25;;;;;;;-148.88;100.00;-17125.47;4991193;28;20089;-86
2023/10/27 10:28:13;;;;;;;41.53;23.23;;;;;;;-148.88;100.00;-17125.47;4995412;28;20038;-86
2023/10/27 10:30:46;;;;;;;42.67;22.48;;;;;;;-148.88;100.00;-17125.47;4996329;28;20060;-85
2023/10/27 10:33:22;;;;;;;35.05;19.33;;;;;;;-148.88;100.00;-17125.47;4996053;28;20129;-88
2023/10/27 10:39:11;;;;;;;47.28;24.33;;;;;;;-148.88;100.00;-17125.47;4996018;28;20576;-85
2023/10/27 10:41:57;;;;;;;38.35;21.80;;;;;;;-148.88;100.00;-17125.47;5011126;28;20529;-85
2023/10/27 10:44:30;;;;;;;35.33;19.38;;;;;;;-148.88;100.00;-17125.47;5010451;28;20026;-84
2023/10/27 10:46:56;;;;;;;33.30;18.42;;;;;;;-148.88;100.00;-17125.47;4996583;28;20064;-85
2023/10/27 10:49:32;;;;;;;33.08;18.58;;;;;;;-148.88;100.00;-17125.47;5011491;28;20038;-85
2023/10/27 10:52:27;;;;;;;32.95;18.05;;;;;;;-148.88;100.00;-17125.47;4996019;28;20457;-85
2023/10/27 10:55:32;;;;;;;34.88;18.25;;;;;;;-148.88;100.00;-17125.47;5008877;28;20034;-87
2023/10/27 10:58:09;;;;;;;;;;;;;;;-148.88;100.00;-17125.47;4993159;28;20089;-84
2023/10/27 11:01:09;;;;;;;33.13;17.70;;;;;;;-148.88;100.00;-17125.47;4995798;28;19975;-85
2023/10/27 11:03:35;;;;;;;37.50;18.70;;;;;;;-148.88;100.00;-17125.47;4935767;29;20048;-85
2023/10/27 11:06:32;;;;;;;35.00;19.33;;;;;;;-148.88;100.00;-17125.47;4935041;29;20031;-85
2023/10/27 11:08:57;;;;;;;34.03;19.52;;;;;;;-148.88;100.00;-17125.47;4993651;28;20071;-85
2023/10/27 11:11:56;;;;;;;34.00;19.02;;;;;;;-148.88;100.00;-17125.47;4996304;28;20397;-87
2023/10/27 11:18:08;;;;;;;34.42;18.52;;;;;;;-148.88;100.00;-17125.47;4992596;28;20109;-85